Time;durP1;ratioP1;P1;durP2;ratioP2;P2;SDS_P1;SDS_P2;PMS_P1;PMS_P2;Temp;Humidity;BMP_temperature;BMP_pressure;BME280_temperature;BME280_humidity;BME280_pressure;Samples;Min_cycle;Max_cycle;Signal;HPM_P1;HPM_P2
2023/03/20 00:01:27;;;;;;;1.83;1.40;;;;;;;7.34;96.72;99494.06;5051783;28;20210;-74
2023/03/20 00:03:55;;;;;;;2.43;1.43;;;;;;;7.38;96.35;99486.19;5051624;28;20216;-74
2023/03/20 00:06:23;;;;;;;4.33;1.30;;;;;;;7.41;96.11;99493.66;5051604;28;20203;-74
2023/03/20 00:08:52;;;;;;;1.63;1.43;;;;;;;7.38;96.33;99483.63;5051869;28;20219;-74
2023/03/20 00:11:29;;;;;;;1.50;1.23;;;;;;;7.52;96.04;99477.00;5051492;28;20670;-74
2023/03/20 00:14:00;;;;;;;3.07;2.03;;;;;;;7.80;94.36;99479.72;5051509;28;20247;-74
2023/03/20 00:16:31;;;;;;;1.43;1.23;;;;;;;7.99;93.38;99465.97;5051517;28;20204;-74
2023/03/20 00:18:58;;;;;;;4.03;1.53;;;;;;;8.08;92.73;99466.25;5051357;28;20219;-74
2023/03/20 00:21:26;;;;;;;1.93;1.63;;;;;;;7.96;93.05;99454.22;5051357;28;20196;-74
2023/03/20 00:23:54;;;;;;;2.20;1.50;;;;;;;7.92;93.59;99461.22;5051303;28;20695;-73
2023/03/20 00:26:25;;;;;;;2.83;2.10;;;;;;;7.90;93.48;99455.38;5051638;28;20207;-74
2023/03/20 00:28:52;;;;;;;3.83;1.60;;;;;;;7.83;93.49;99456.63;5051545;28;20569;-74
2023/03/20 00:31:25;;;;;;;4.53;1.77;;;;;;;7.79;93.67;99455.13;5051114;28;20231;-74
2023/03/20 00:33:53;;;;;;;3.33;1.73;;;;;;;7.74;93.83;99446.97;5051389;28;20222;-74
2023/03/20 00:36:20;;;;;;;2.63;2.00;;;;;;;7.65;94.57;99450.81;5051180;28;20200;-74
2023/03/20 00:38:47;;;;;;;3.27;1.97;;;;;;;7.65;94.37;99452.53;5051181;28;20699;-74
2023/03/20 00:41:25;;;;;;;2.70;1.63;;;;;;;7.52;95.29;99442.19;5050125;28;20210;-74
2023/03/20 00:43:55;;;;;;;2.23;1.87;;;;;;;7.55;95.09;99446.31;5050903;28;20604;-74
2023/03/20 00:46:24;;;;;;;2.17;1.73;;;;;;;7.71;93.97;99439.50;5051416;28;20210;-74
2023/03/20 00:48:51;;;;;;;3.10;1.83;;;;;;;7.76;93.35;99440.03;5050995;28;20591;-74
2023/03/20 00:51:19;;;;;;;2.80;2.13;;;;;;;7.87;92.50;99436.91;5050836;28;20234;-74
2023/03/20 00:53:46;;;;;;;2.80;1.90;;;;;;;7.96;91.69;99430.50;5050718;28;20223;-74
2023/03/20 00:56:30;;;;;;;3.70;1.93;;;;;;;7.98;91.42;99433.78;5050910;28;20203;-74
2023/03/20 00:58:57;;;;;;;2.73;1.33;;;;;;;7.92;91.74;99429.84;5050971;28;20227;-74
2023/03/20 01:01:26;;;;;;;2.27;1.63;;;;;;;7.97;91.18;99424.47;5050769;28;20687;-74
2023/03/20 01:03:52;;;;;;;2.00;1.80;;;;;;;7.85;92.02;99424.28;5050765;28;20250;-74
2023/03/20 01:06:19;;;;;;;1.37;1.20;;;;;;;7.79;92.29;99424.59;5050706;28;20195;-74
2023/03/20 01:08:47;;;;;;;3.87;2.13;;;;;;;7.89;91.84;99428.28;5050605;28;20223;-74
2023/03/20 01:11:17;;;;;;;2.43;1.40;;;;;;;7.88;91.94;99424.13;5050352;28;20285;-74
2023/03/20 01:13:44;;;;;;;2.23;1.70;;;;;;;8.08;90.99;99422.16;5050206;28;20227;-74
2023/03/20 01:16:20;;;;;;;2.97;2.13;;;;;;;7.99;90.96;99415.03;5050507;28;20285;-74
2023/03/20 01:18:49;;;;;;;3.30;1.77;;;;;;;7.98;91.24;99418.50;5050247;28;20253;-74
2023/03/20 01:21:16;;;;;;;2.07;1.40;;;;;;;8.07;90.83;99417.97;5050391;28;20218;-74
2023/03/20 01:23:43;;;;;;;3.57;2.33;;;;;;;7.98;91.24;99413.41;5050102;28;20757;-74
2023/03/20 01:26:22;;;;;;;4.73;2.13;;;;;;;8.04;90.75;99413.88;5050372;28;20580;-74
2023/03/20 01:28:49;;;;;;;6.13;1.33;;;;;;;8.06;90.06;99418.91;5050106;28;20219;-74
2023/03/20 01:31:17;;;;;;;2.60;1.60;;;;;;;7.93;90.51;99406.00;5050057;28;20482;-74
2023/03/20 01:33:45;;;;;;;2.73;1.63;;;;;;;7.89;90.80;99410.47;5050092;28;20214;-74
2023/03/20 01:36:16;;;;;;;1.63;1.53;;;;;;;7.82;91.36;99413.44;5049983;28;20595;-74
2023/03/20 01:38:43;;;;;;;3.97;1.80;;;;;;;7.74;91.44;99408.78;5050230;28;20227;-74
2023/03/20 01:41:15;;;;;;;2.60;1.53;;;;;;;7.63;92.19;99408.56;5049846;28;20199;-74
2023/03/20 01:43:42;;;;;;;2.10;1.83;;;;;;;7.70;92.04;99400.47;5050047;28;20255;-74
2023/03/20 01:46:20;;;;;;;3.43;1.97;;;;;;;7.79;91.75;99409.31;5050041;28;20662;-74
2023/03/20 01:49:09;;;;;;;1.73;1.57;;;;;;;7.82;91.86;99409.16;5050093;28;20697;-74
2023/03/20 01:51:37;;;;;;;3.37;2.03;;;;;;;7.88;91.58;99413.94;5049666;28;20227;-74
2023/03/20 01:54:07;;;;;;;2.97;1.80;;;;;;;8.00;91.48;99409.03;5050088;28;20623;-74
2023/03/20 01:56:39;;;;;;;2.17;1.53;;;;;;;8.03;91.38;99408.84;5049844;28;20187;-74
2023/03/20 01:59:12;;;;;;;2.33;1.57;;;;;;;8.04;91.24;99415.59;5049835;28;20226;-74
2023/03/20 02:01:40;;;;;;;1.70;1.57;;;;;;;8.08;91.00;99414.50;5050007;28;20206;-74
2023/03/20 02:04:08;;;;;;;2.50;1.90;;;;;;;7.90;91.77;99419.72;5049695;28;20767;-74
2023/03/20 02:06:39;;;;;;;2.07;1.63;;;;;;;7.76;92.59;99419.69;5049926;28;20368;-74
2023/03/20 02:09:06;;;;;;;1.83;1.30;;;;;;;7.80;92.45;99416.06;5049726;28;20230;-74
2023/03/20 02:11:33;;;;;;;2.87;2.13;;;;;;;7.73;92.82;99419.84;5049649;28;20777;-74
2023/03/20 02:14:01;;;;;;;4.40;2.20;;;;;;;7.58;93.40;99408.78;5049382;28;20745;-74
2023/03/20 02:16:28;;;;;;;1.83;1.43;;;;;;;7.49;93.58;99415.19;5049653;28;20755;-74
2023/03/20 02:18:57;;;;;;;2.43;1.90;;;;;;;7.45;94.90;99420.56;5049661;28;20622;-74
2023/03/20 02:21:51;;;;;;;2.80;2.00;;;;;;;7.44;94.61;99414.63;5049787;28;20195;-74
2023/03/20 02:24:51;;;;;;;2.53;1.30;;;;;;;7.38;94.83;99414.97;5049619;28;20219;-74
2023/03/20 02:27:30;;;;;;;2.70;1.80;;;;;;;7.47;94.62;99404.28;5049735;28;20445;-74
2023/03/20 02:30:19;;;;;;;2.97;1.17;;;;;;;7.45;94.30;99412.91;5049481;28;20222;-74
2023/03/20 02:33:25;;;;;;;7.00;1.97;;;;;;;7.26;95.64;99405.44;5049281;28;20722;-74
2023/03/20 02:36:23;;;;;;;2.30;1.83;;;;;;;7.02;97.14;99408.38;4975325;28;20197;-74
2023/03/20 02:39:06;;;;;;;3.20;1.63;;;;;;;6.96;97.29;99397.72;5049743;28;20588;-74
2023/03/20 02:41:40;;;;;;;2.50;1.37;;;;;;;6.92;97.96;99406.41;5049420;28;20699;-74
2023/03/20 02:44:12;;;;;;;4.87;2.00;;;;;;;6.91;98.70;99415.75;5049400;28;20623;-74
2023/03/20 02:46:51;;;;;;;3.00;1.73;;;;;;;6.95;98.62;99403.69;5049208;28;20199;-74
2023/03/20 02:49:30;;;;;;;2.37;1.50;;;;;;;6.89;99.57;99404.84;5049230;28;20223;-74
2023/03/20 02:52:02;;;;;;;5.27;1.57;;;;;;;6.80;100.00;99407.84;5049260;28;20238;-74
2023/03/20 02:54:39;;;;;;;2.87;1.83;;;;;;;6.80;100.00;99405.31;5049092;28;20223;-74
2023/03/20 02:57:12;;;;;;;4.00;1.57;;;;;;;6.86;100.00;99387.19;5049077;28;20195;-74
2023/03/20 02:59:45;;;;;;;4.03;2.63;;;;;;;6.92;100.00;99392.00;5049612;28;20219;-74
2023/03/20 03:02:17;;;;;;;2.20;2.00;;;;;;;6.77;100.00;99383.41;5048979;28;20199;-74
2023/03/20 03:04:51;;;;;;;2.30;1.33;;;;;;;6.70;100.00;99389.72;5051270;28;20661;-74
2023/03/20 03:07:22;;;;;;;3.00;1.60;;;;;;;6.73;100.00;99391.28;5052737;28;20202;-74
2023/03/20 03:09:56;;;;;;;4.00;2.57;;;;;;;6.62;100.00;99393.56;5052984;28;20416;-74
2023/03/20 03:12:27;;;;;;;1.87;0.97;;;;;;;6.67;100.00;99391.63;5052671;28;20219;-74
2023/03/20 03:14:57;;;;;;;2.83;1.40;;;;;;;6.85;100.00;99389.84;5052715;28;20587;-74
2023/03/20 03:17:27;;;;;;;2.67;1.93;;;;;;;6.95;100.00;99386.75;5052636;28;20206;-74
2023/03/20 03:20:00;;;;;;;2.17;1.60;;;;;;;7.04;100.00;99380.34;5052564;28;20215;-74
2023/03/20 03:22:27;;;;;;;2.17;1.67;;;;;;;7.13;100.00;99384.13;5052757;28;20227;-74
2023/03/20 03:24:55;;;;;;;2.17;1.73;;;;;;;7.15;100.00;99387.38;5052523;28;20737;-74
2023/03/20 03:27:28;;;;;;;5.90;2.27;;;;;;;7.17;100.00;99388.13;5052431;28;20680;-74
2023/03/20 03:29:58;;;;;;;2.87;1.60;;;;;;;7.21;100.00;99387.06;5052350;28;20735;-74
2023/03/20 03:32:31;;;;;;;2.30;1.93;;;;;;;7.17;100.00;99385.59;5052543;28;20230;-74
2023/03/20 03:35:00;;;;;;;3.50;1.93;;;;;;;7.17;100.00;99394.03;5052436;28;20199;-74
2023/03/20 03:37:39;;;;;;;2.83;2.03;;;;;;;7.19;100.00;99386.34;5052373;28;20273;-74
2023/03/20 03:40:19;;;;;;;2.00;1.73;;;;;;;7.17;100.00;99388.13;5052157;28;20203;-74
2023/03/20 03:42:53;;;;;;;2.50;1.30;;;;;;;7.16;100.00;99389.06;5052159;28;20203;-74
2023/03/20 03:45:28;;;;;;;3.07;1.53;;;;;;;7.11;100.00;99393.56;5052206;28;20206;-74
2023/03/20 03:47:59;;;;;;;1.67;1.07;;;;;;;7.06;100.00;99383.63;5052157;28;20304;-74
2023/03/20 03:50:31;;;;;;;2.47;1.60;;;;;;;7.05;100.00;99386.25;5052261;28;20635;-74
2023/03/20 03:53:01;;;;;;;2.60;1.60;;;;;;;7.03;100.00;99388.88;5051802;28;20237;-74
2023/03/20 03:55:35;;;;;;;3.10;1.53;;;;;;;7.05;100.00;99391.34;5051938;28;20683;-74
2023/03/20 03:58:06;;;;;;;1.87;1.37;;;;;;;6.97;100.00;99395.09;5051878;28;20633;-74
2023/03/20 04:00:34;;;;;;;1.97;1.60;;;;;;;6.90;100.00;99393.78;5052260;28;20205;-74
2023/03/20 04:03:03;;;;;;;5.23;1.47;;;;;;;6.85;100.00;99390.66;5051877;28;20215;-74
2023/03/20 04:05:33;;;;;;;3.07;2.10;;;;;;;6.92;100.00;99391.16;5051689;28;20211;-74
2023/03/20 04:08:02;;;;;;;3.37;1.87;;;;;;;6.97;100.00;99389.19;5051537;28;20302;-74
2023/03/20 04:10:30;;;;;;;4.07;2.07;;;;;;;6.99;100.00;99383.13;5051787;28;20199;-74
2023/03/20 04:12:57;;;;;;;3.53;2.33;;;;;;;7.07;100.00;99389.50;5051200;28;20267;-74
2023/03/20 04:15:26;;;;;;;4.47;2.60;;;;;;;6.97;100.00;99392.53;5050371;28;20691;-74
2023/03/20 04:17:53;;;;;;;5.07;2.33;;;;;;;6.83;100.00;99392.44;5051481;28;20310;-74
2023/03/20 04:20:21;;;;;;;2.40;2.03;;;;;;;6.72;100.00;99399.78;5051708;28;20215;-74
2023/03/20 04:22:47;;;;;;;3.43;2.10;;;;;;;6.50;100.00;99405.16;5051255;28;20208;-74
2023/03/20 04:25:17;;;;;;;2.60;1.70;;;;;;;6.33;100.00;99398.38;5051111;28;20207;-74
2023/03/20 04:27:45;;;;;;;2.80;2.03;;;;;;;6.33;100.00;99399.19;5051675;28;20199;-74
2023/03/20 04:30:13;;;;;;;2.17;1.97;;;;;;;6.26;100.00;99397.88;5051361;28;20199;-74
2023/03/20 04:32:40;;;;;;;2.87;2.27;;;;;;;6.31;100.00;99400.16;5050860;28;20728;-74
2023/03/20 04:35:08;;;;;;;2.07;1.87;;;;;;;6.27;100.00;99394.44;5051140;28;20695;-74
2023/03/20 04:37:34;;;;;;;1.87;1.67;;;;;;;6.26;100.00;99397.06;5050960;28;20203;-74
2023/03/20 04:40:01;;;;;;;3.33;2.20;;;;;;;6.33;100.00;99393.31;5051243;28;20585;-74
2023/03/20 04:42:28;;;;;;;3.33;2.03;;;;;;;6.42;100.00;99397.91;5051148;28;20199;-74
2023/03/20 04:44:57;;;;;;;2.83;2.03;;;;;;;6.49;100.00;99408.63;5051030;28;20223;-74
2023/03/20 04:47:23;;;;;;;3.10;2.03;;;;;;;6.54;100.00;99402.41;5050888;28;20689;-74
2023/03/20 04:49:51;;;;;;;1.93;1.40;;;;;;;6.57;100.00;99401.41;5050784;28;20222;-74
2023/03/20 04:52:18;;;;;;;2.17;1.97;;;;;;;6.67;100.00;99401.78;5050772;28;20238;-74
2023/03/20 04:54:45;;;;;;;4.27;1.77;;;;;;;6.84;100.00;99411.91;5050693;28;20219;-74
2023/03/20 04:57:12;;;;;;;3.33;1.90;;;;;;;6.98;100.00;99404.38;5050855;28;20206;-74
2023/03/20 04:59:39;;;;;;;2.93;2.17;;;;;;;7.12;100.00;99407.91;5050749;28;20219;-74
2023/03/20 05:02:07;;;;;;;6.40;1.83;;;;;;;7.27;100.00;99402.00;5050603;28;20195;-74
2023/03/20 05:04:34;;;;;;;2.77;2.03;;;;;;;7.39;100.00;99391.19;5050649;28;20223;-74
2023/03/20 05:07:01;;;;;;;3.23;2.20;;;;;;;7.55;100.00;99395.41;5050610;28;20211;-74
2023/03/20 05:09:28;;;;;;;5.10;1.70;;;;;;;7.76;100.00;99401.84;5050384;28;20215;-74
2023/03/20 05:11:55;;;;;;;2.07;1.87;;;;;;;7.98;100.00;99408.31;5050499;28;20825;-74
2023/03/20 05:14:21;;;;;;;3.77;2.50;;;;;;;8.18;99.96;99405.47;5050185;28;20246;-74
2023/03/20 05:16:48;;;;;;;3.80;2.33;;;;;;;8.42;98.72;99417.72;5050476;28;20207;-74
2023/03/20 05:19:17;;;;;;;4.13;2.47;;;;;;;8.56;96.92;99408.34;5050269;28;20219;-74
2023/03/20 05:21:43;;;;;;;3.67;1.93;;;;;;;8.70;96.19;99416.94;5050764;28;20570;-74
2023/03/20 05:24:10;;;;;;;3.87;2.50;;;;;;;8.88;95.69;99426.03;5050446;28;20219;-74
2023/03/20 05:26:37;;;;;;;4.10;2.57;;;;;;;8.95;94.79;99429.84;5049707;28;20203;-74
2023/03/20 05:29:04;;;;;;;3.17;2.13;;;;;;;9.06;93.20;99421.53;5050376;28;20703;-74
2023/03/20 05:31:31;;;;;;;3.20;2.50;;;;;;;9.16;92.72;99420.09;5049829;28;20602;-74
2023/03/20 05:33:58;;;;;;;4.97;2.10;;;;;;;9.32;91.49;99424.25;5050291;28;20726;-74
2023/03/20 05:36:26;;;;;;;5.77;2.70;;;;;;;9.47;91.45;99423.28;5050290;28;20199;-74
2023/03/20 05:38:53;;;;;;;3.57;2.20;;;;;;;9.57;92.43;99424.38;5049971;28;20227;-74
2023/03/20 05:41:20;;;;;;;2.53;1.97;;;;;;;9.65;92.85;99442.53;5050091;28;20596;-74
2023/03/20 05:43:47;;;;;;;2.80;2.03;;;;;;;9.75;92.46;99432.59;5050267;28;20231;-74
2023/03/20 05:46:14;;;;;;;5.17;2.63;;;;;;;10.00;91.11;99442.06;5049944;28;20195;-74
2023/03/20 05:48:41;;;;;;;8.40;3.37;;;;;;;10.44;91.23;99446.03;5049799;28;20783;-74
2023/03/20 05:51:08;;;;;;;6.07;4.00;;;;;;;10.86;86.26;99447.47;5049863;28;20214;-74
2023/03/20 05:53:36;;;;;;;5.80;3.50;;;;;;;11.19;82.81;99442.72;5049685;28;20241;-73
2023/03/20 05:56:03;;;;;;;7.13;3.93;;;;;;;11.63;82.86;99436.22;5049759;28;20253;-73
2023/03/20 05:58:30;;;;;;;5.60;3.70;;;;;;;11.96;76.64;99433.84;5049706;28;20216;-73
2023/03/20 06:00:57;;;;;;;8.20;3.80;;;;;;;12.32;74.73;99439.78;5050158;28;20272;-73
2023/03/20 06:03:24;;;;;;;8.10;3.57;;;;;;;12.74;76.15;99439.25;5049984;28;20755;-73
2023/03/20 06:05:51;;;;;;;5.33;3.00;;;;;;;13.12;73.45;99433.78;5049708;28;20203;-73
2023/03/20 06:08:18;;;;;;;8.47;3.73;;;;;;;13.51;71.62;99444.47;5049773;28;20219;-73
2023/03/20 06:10:46;;;;;;;6.03;3.07;;;;;;;13.74;72.62;99446.03;5049665;28;20362;-73
2023/03/20 06:13:13;;;;;;;8.30;3.97;;;;;;;13.99;71.28;99444.88;5049330;28;20659;-73
2023/03/20 06:15:40;;;;;;;8.83;4.20;;;;;;;14.36;68.25;99446.22;5049728;28;20208;-73
2023/03/20 06:18:07;;;;;;;8.80;3.87;;;;;;;14.58;70.58;99451.25;5049415;28;20242;-73
2023/03/20 06:20:34;;;;;;;6.53;3.30;;;;;;;14.78;67.11;99457.31;5049672;28;20195;-74
2023/03/20 06:23:01;;;;;;;5.57;3.27;;;;;;;14.83;65.91;99464.63;5049799;28;20227;-75
2023/03/20 06:25:28;;;;;;;5.60;3.27;;;;;;;15.06;67.32;99460.94;5049612;28;20595;-74
2023/03/20 06:27:56;;;;;;;9.17;4.03;;;;;;;15.32;64.06;99463.84;5049468;28;20215;-74
2023/03/20 06:30:23;;;;;;;8.33;3.57;;;;;;;15.40;62.74;99458.06;5049873;28;20667;-73
2023/03/20 06:32:50;;;;;;;5.67;3.47;;;;;;;15.33;67.15;99462.09;5049370;28;20607;-74
2023/03/20 06:35:18;;;;;;;6.17;3.73;;;;;;;15.53;65.00;99462.94;5049811;28;20277;-73
2023/03/20 06:37:44;;;;;;;7.43;3.50;;;;;;;15.59;62.71;99465.81;5049307;28;20270;-73
2023/03/20 06:40:11;;;;;;;4.70;2.77;;;;;;;15.69;63.67;99462.47;5052163;28;20203;-73
2023/03/20 06:42:38;;;;;;;5.37;3.37;;;;;;;15.20;62.61;99461.53;5053289;28;20687;-74
2023/03/20 06:45:08;;;;;;;10.27;4.03;;;;;;;15.23;62.83;99461.25;5053402;28;20201;-74
2023/03/20 06:47:35;;;;;;;5.90;3.27;;;;;;;15.48;65.22;99459.97;5053102;28;20275;-74
2023/03/20 06:50:02;;;;;;;5.97;3.73;;;;;;;15.49;66.02;99466.75;5053243;28;20199;-74
2023/03/20 06:52:28;;;;;;;5.83;3.00;;;;;;;15.62;66.47;99467.31;5052872;28;20230;-74
2023/03/20 06:54:56;;;;;;;6.07;3.57;;;;;;;15.52;63.22;99464.72;5053153;28;20223;-74
2023/03/20 06:57:23;;;;;;;2.97;2.37;;;;;;;15.51;67.05;99468.25;5053271;28;20296;-74
2023/03/20 06:59:50;;;;;;;5.83;3.00;;;;;;;15.72;63.01;99462.22;5052931;28;20504;-74
2023/03/20 07:02:19;;;;;;;6.80;3.07;;;;;;;15.36;61.65;99461.84;5053167;28;20196;-73
2023/03/20 07:04:45;;;;;;;6.27;3.33;;;;;;;14.66;64.04;99448.84;5053224;28;20219;-73
2023/03/20 07:07:12;;;;;;;5.67;3.63;;;;;;;14.80;64.61;99449.44;5052817;28;20195;-74
2023/03/20 07:09:39;;;;;;;6.37;3.37;;;;;;;15.13;64.15;99451.75;5052765;28;20670;-74
2023/03/20 07:12:13;;;;;;;6.30;4.00;;;;;;;14.30;66.69;99441.56;5052704;28;20199;-73
2023/03/20 07:14:40;;;;;;;5.60;3.33;;;;;;;14.48;67.46;99434.91;5052906;28;20234;-74
2023/03/20 07:17:07;;;;;;;7.03;3.40;;;;;;;15.39;68.94;99446.94;5052834;28;20195;-74
2023/03/20 07:19:36;;;;;;;6.97;4.13;;;;;;;16.05;65.20;99443.72;5052966;28;20227;-74
2023/03/20 07:22:06;;;;;;;6.17;3.80;;;;;;;16.50;61.89;99445.72;5052888;28;20266;-74
2023/03/20 07:24:33;;;;;;;5.77;3.23;;;;;;;16.76;60.43;99445.13;5052755;28;20221;-73
2023/03/20 07:27:00;;;;;;;7.67;3.57;;;;;;;16.71;61.72;99439.53;5052480;28;20264;-73
2023/03/20 07:29:27;;;;;;;6.73;3.90;;;;;;;16.83;60.16;99451.34;5052778;28;20281;-74
2023/03/20 07:31:55;;;;;;;6.80;4.20;;;;;;;16.58;61.25;99446.75;5052492;28;20207;-74
2023/03/20 07:34:24;;;;;;;5.30;3.37;;;;;;;16.27;60.34;99447.78;5053108;28;20623;-73
2023/03/20 07:36:52;;;;;;;6.67;3.40;;;;;;;16.52;61.36;99446.41;5052677;28;20199;-74
2023/03/20 07:39:19;;;;;;;5.80;3.37;;;;;;;17.47;62.90;99452.22;5052211;28;20223;-73
2023/03/20 07:41:46;;;;;;;8.53;4.10;;;;;;;17.83;58.12;99457.44;5052343;28;20220;-74
2023/03/20 07:44:13;;;;;;;6.53;3.57;;;;;;;18.15;59.24;99456.94;5051886;28;20217;-74
2023/03/20 07:46:40;;;;;;;9.57;4.00;;;;;;;18.55;56.94;99460.72;5052210;28;20681;-73
2023/03/20 07:49:07;;;;;;;6.07;3.57;;;;;;;18.99;56.65;99460.66;5052067;28;20985;-74
2023/03/20 07:51:34;;;;;;;6.67;3.73;;;;;;;18.93;55.10;99458.69;5051929;28;20204;-73
2023/03/20 07:54:03;;;;;;;6.90;4.10;;;;;;;18.77;54.91;99462.84;5051944;28;20260;-74
2023/03/20 07:56:29;;;;;;;6.03;3.70;;;;;;;18.86;55.14;99466.28;5051945;28;20211;-74
2023/03/20 07:58:56;;;;;;;8.30;4.17;;;;;;;18.98;55.25;99474.59;5051877;28;20703;-73
2023/03/20 08:01:23;;;;;;;7.80;4.43;;;;;;;18.92;56.07;99472.63;5051990;28;20231;-74
2023/03/20 08:03:50;;;;;;;7.43;4.43;;;;;;;19.13;53.06;99465.25;5052085;28;20215;-73
2023/03/20 08:06:17;;;;;;;7.90;3.70;;;;;;;18.96;55.50;99471.34;5051876;28;20210;-73
2023/03/20 08:08:45;;;;;;;7.30;4.30;;;;;;;18.88;53.27;99466.13;5051789;28;20216;-76
2023/03/20 08:11:13;;;;;;;6.47;3.87;;;;;;;19.34;54.31;99475.19;5051757;28;20656;-73
2023/03/20 08:13:40;;;;;;;8.37;4.00;;;;;;;19.80;54.18;99464.47;5051420;28;20244;-74
2023/03/20 08:16:07;;;;;;;7.57;4.17;;;;;;;20.20;51.84;99473.25;5051590;28;20204;-74
2023/03/20 08:18:34;;;;;;;7.87;4.33;;;;;;;20.65;51.97;99459.72;5051538;28;20233;-74
2023/03/20 08:21:01;;;;;;;7.03;4.30;;;;;;;20.87;49.43;99455.59;5051546;28;20235;-74
2023/03/20 08:23:28;;;;;;;7.17;4.33;;;;;;;21.00;48.64;99458.47;5051538;28;20225;-74
2023/03/20 08:25:55;;;;;;;7.03;4.50;;;;;;;20.80;51.20;99467.66;5051194;28;20295;-74
2023/03/20 08:28:23;;;;;;;6.90;4.30;;;;;;;19.82;49.58;99467.72;5051587;28;20224;-74
2023/03/20 08:30:50;;;;;;;7.00;3.73;;;;;;;19.93;54.39;99464.81;5051250;28;20210;-73
2023/03/20 08:33:18;;;;;;;6.23;3.63;;;;;;;20.64;50.86;99458.09;5051032;28;20692;-73
2023/03/20 08:35:55;;;;;;;7.57;4.43;;;;;;;21.04;53.22;99464.16;5051499;28;20615;-73
2023/03/20 08:38:22;;;;;;;9.57;4.33;;;;;;;20.67;50.09;99467.34;5051289;28;20223;-74
2023/03/20 08:40:49;;;;;;;8.73;4.33;;;;;;;20.97;50.10;99469.22;5051399;28;20279;-74
2023/03/20 08:43:17;;;;;;;8.47;4.80;;;;;;;20.78;49.64;99469.59;5051157;28;20696;-74
2023/03/20 08:45:45;;;;;;;7.17;4.07;;;;;;;21.17;48.68;99463.59;5051037;28;20206;-74
2023/03/20 08:48:12;;;;;;;9.10;4.67;;;;;;;21.49;49.19;99465.22;5050923;28;20229;-74
2023/03/20 08:50:39;;;;;;;6.83;3.73;;;;;;;21.60;48.28;99464.03;5050935;28;20202;-74
2023/03/20 08:53:06;;;;;;;6.87;3.80;;;;;;;21.78;47.39;99464.56;5050819;28;20309;-74
2023/03/20 08:55:34;;;;;;;10.50;4.47;;;;;;;22.19;48.03;99466.06;5050863;28;20729;-74
2023/03/20 08:58:00;;;;;;;7.17;4.00;;;;;;;22.25;47.95;99467.94;5050841;28;20715;-74
2023/03/20 09:00:27;;;;;;;7.60;4.03;;;;;;;22.72;45.45;99467.66;5050663;28;20204;-74
2023/03/20 09:02:56;;;;;;;7.83;4.17;;;;;;;21.93;45.86;99465.44;5050063;28;20226;-74
2023/03/20 09:05:23;;;;;;;7.83;4.10;;;;;;;21.99;45.87;99460.50;5050556;28;20208;-74
2023/03/20 09:07:50;;;;;;;6.80;3.63;;;;;;;21.64;45.56;99465.28;5050532;28;20193;-74
2023/03/20 09:10:17;;;;;;;7.50;4.10;;;;;;;20.01;47.11;99462.22;5050787;28;20210;-74
2023/03/20 09:12:44;;;;;;;6.00;3.63;;;;;;;20.54;50.12;99463.50;5050146;28;20646;-74
2023/03/20 09:15:11;;;;;;;8.10;3.70;;;;;;;21.63;48.19;99464.50;5050492;28;20206;-74
2023/03/20 09:17:38;;;;;;;7.77;4.00;;;;;;;22.17;44.57;99460.19;5050471;28;20198;-74
2023/03/20 09:20:08;;;;;;;10.27;5.80;;;;;;;22.57;46.80;99456.38;5050490;28;20226;-74
2023/03/20 09:22:35;;;;;;;6.00;3.40;;;;;;;22.80;46.90;99454.50;5050516;28;20195;-74
2023/03/20 09:25:02;;;;;;;5.18;3.38;;;;;;;23.24;43.25;99453.69;5050318;28;20590;-74
2023/03/20 09:27:28;;;;;;;4.63;3.10;;;;;;;23.36;43.65;99461.00;5050248;28;20611;-73
2023/03/20 09:29:55;;;;;;;5.38;3.10;;;;;;;23.53;41.68;99451.94;5050398;28;20237;-75
2023/03/20 09:32:22;;;;;;;6.35;3.42;;;;;;;22.99;43.62;99447.97;5049959;28;20205;-72
2023/03/20 09:34:49;;;;;;;4.93;3.17;;;;;;;22.58;42.98;99450.22;5050143;28;20239;-73
2023/03/20 09:37:17;;;;;;;7.13;3.60;;;;;;;22.38;43.31;99450.72;5050291;28;20634;-73
2023/03/20 09:39:44;;;;;;;4.88;2.97;;;;;;;22.15;45.35;99447.34;5050120;28;20223;-74
2023/03/20 09:42:25;;;;;;;6.65;3.50;;;;;;;22.98;43.92;99453.34;5050020;28;20195;-73
2023/03/20 09:45:02;;;;;;;6.40;3.75;;;;;;;22.85;42.34;99447.94;5049838;28;20268;-73
2023/03/20 09:47:36;;;;;;;6.63;3.72;;;;;;;23.20;41.54;99452.41;5049846;28;20199;-74
2023/03/20 09:50:20;;;;;;;6.25;3.85;;;;;;;22.46;45.87;99441.22;5050257;28;20305;-74
2023/03/20 09:52:56;;;;;;;7.35;4.15;;;;;;;22.67;45.64;99441.31;5049746;28;20671;-73
2023/03/20 09:55:31;;;;;;;8.68;4.35;;;;;;;23.41;44.26;99445.59;5049974;28;20256;-74
2023/03/20 09:58:05;;;;;;;10.02;4.57;;;;;;;23.44;44.95;99445.25;5049804;28;20703;-74
2023/03/20 10:00:35;;;;;;;7.78;4.55;;;;;;;23.48;45.08;99449.09;5049659;28;20745;-74
2023/03/20 10:03:04;;;;;;;7.25;4.32;;;;;;;23.28;45.37;99436.66;5049887;28;20265;-75
2023/03/20 10:05:36;;;;;;;9.45;4.53;;;;;;;23.55;44.44;99439.53;5049526;28;20199;-74
2023/03/20 10:08:10;;;;;;;8.38;4.93;;;;;;;23.09;46.20;99429.41;5049833;28;20211;-74
2023/03/20 10:10:49;;;;;;;7.82;4.40;;;;;;;23.12;46.00;99426.44;5050019;28;20187;-74
2023/03/20 10:13:57;;;;;;;6.78;4.18;;;;;;;22.64;45.86;99420.81;5050770;28;20738;-74
2023/03/20 10:16:35;;;;;;;7.00;4.05;;;;;;;22.56;46.11;99418.31;5048861;28;20525;-74
2023/03/20 10:19:11;;;;;;;8.20;4.57;;;;;;;22.33;47.92;99419.19;5053742;28;20262;-74
2023/03/20 10:21:43;;;;;;;8.43;5.07;;;;;;;21.60;47.32;99414.59;5053889;28;20579;-74
2023/03/20 10:24:20;;;;;;;7.22;4.40;;;;;;;21.84;47.23;99419.59;5053583;28;20219;-73
2023/03/20 10:26:52;;;;;;;7.33;4.43;;;;;;;21.67;45.56;99410.31;5053762;28;20199;-74
2023/03/20 10:29:30;;;;;;;7.93;4.47;;;;;;;21.30;46.59;99411.84;5053479;28;20222;-74
2023/03/20 10:32:06;;;;;;;6.03;3.50;;;;;;;21.02;47.80;99401.91;5053583;28;20220;-74
2023/03/20 10:34:50;;;;;;;6.47;3.67;;;;;;;21.15;50.60;99403.16;5053498;28;20241;-74
2023/03/20 10:37:32;;;;;;;6.10;3.50;;;;;;;20.45;47.30;99402.13;5053850;28;20190;-73
2023/03/20 10:40:27;;;;;;;7.37;3.73;;;;;;;20.67;47.02;99405.81;5053576;28;20203;-74
2023/03/20 10:42:57;;;;;;;9.37;4.50;;;;;;;21.58;48.89;99398.34;5053323;28;20806;-74
2023/03/20 10:45:34;;;;;;;6.77;3.57;;;;;;;22.20;47.54;99395.56;5053271;28;20756;-74
2023/03/20 10:48:07;;;;;;;8.27;3.90;;;;;;;21.81;45.53;99388.72;5053185;28;20684;-74
2023/03/20 10:50:40;;;;;;;6.17;3.37;;;;;;;22.23;46.10;99384.78;5053212;28;20204;-74
2023/03/20 10:53:08;;;;;;;4.83;3.53;;;;;;;22.64;45.75;99383.53;5053178;28;20341;-74
2023/03/20 10:55:40;;;;;;;5.13;3.40;;;;;;;22.44;42.96;99384.06;5053163;28;20204;-74
2023/03/20 10:58:17;;;;;;;6.30;3.60;;;;;;;22.57;43.30;99378.22;5052925;28;20224;-74
2023/03/20 11:00:44;;;;;;;3.67;2.25;;;;;;;22.90;42.75;99378.63;5052942;28;20207;-74
2023/03/20 11:03:21;;;;;;;4.95;2.63;;;;;;;22.94;41.81;99374.66;5052991;28;20230;-74
2023/03/20 11:05:53;;;;;;;2.75;1.98;;;;;;;22.90;41.88;99377.81;5052855;28;20265;-74
2023/03/20 11:08:25;;;;;;;3.30;2.10;;;;;;;20.93;41.34;99363.94;5053064;28;20600;-74
2023/03/20 11:11:02;;;;;;;5.03;2.33;;;;;;;21.54;42.24;99360.66;5052957;28;20199;-74
2023/03/20 11:13:32;;;;;;;3.58;2.28;;;;;;;22.29;40.74;99358.03;5052435;28;20235;-74
2023/03/20 11:16:10;;;;;;;3.25;1.70;;;;;;;22.71;40.44;99353.94;5052806;28;20210;-74
2023/03/20 11:18:37;;;;;;;2.80;2.00;;;;;;;22.73;37.29;99357.16;5052602;28;20655;-74
2023/03/20 11:21:05;;;;;;;3.13;2.05;;;;;;;22.71;38.32;99348.72;5052778;28;20199;-74
2023/03/20 11:23:34;;;;;;;4.03;2.13;;;;;;;22.98;36.44;99349.03;5052705;28;20231;-74
2023/03/20 11:26:05;;;;;;;3.25;2.10;;;;;;;22.67;38.06;99337.06;5051770;28;20635;-73
2023/03/20 11:28:34;;;;;;;4.05;1.90;;;;;;;23.19;37.42;99336.03;5052456;28;20216;-74
2023/03/20 11:31:04;;;;;;;7.15;3.45;;;;;;;23.88;42.69;99324.97;5052405;28;20693;-75
2023/03/20 11:33:34;;;;;;;4.20;2.03;;;;;;;23.25;36.19;99329.25;5052340;28;20611;-75
2023/03/20 11:36:01;;;;;;;2.85;1.88;;;;;;;22.70;36.35;99326.25;5052614;28;20198;-74
2023/03/20 11:38:31;;;;;;;4.72;2.80;;;;;;;23.18;38.85;99318.75;5052578;28;20590;-74
2023/03/20 11:40:58;;;;;;;5.43;2.75;;;;;;;23.43;40.48;99320.97;5052386;28;20753;-74
2023/03/20 11:43:27;;;;;;;4.75;2.75;;;;;;;23.28;41.09;99313.22;5052043;28;20227;-74
2023/03/20 11:45:57;;;;;;;5.38;2.72;;;;;;;23.07;39.68;99303.63;5052113;28;20203;-74
2023/03/20 11:48:25;;;;;;;4.40;2.60;;;;;;;23.33;41.51;99312.66;5051998;28;20583;-74
2023/03/20 11:51:00;;;;;;;4.07;2.05;;;;;;;24.10;39.16;99296.16;5052221;28;20196;-74